Time;durP1;ratioP1;P1;durP2;ratioP2;P2;SDS_P1;SDS_P2;PMS_P1;PMS_P2;Temp;Humidity;BMP_temperature;BMP_pressure;BME280_temperature;BME280_humidity;BME280_pressure;Samples;Min_cycle;Max_cycle;Signal;HPM_P1;HPM_P2
2023/08/05 00:04:54;;;;;;;7.57;4.07;;;;;;;16.74;64.35;100535.72;20824714;28;20707;-82
2023/08/05 00:14:57;;;;;;;5.20;3.38;;;;;;;16.08;65.68;100535.47;20822355;28;20274;-82
2023/08/05 00:25:00;;;;;;;5.40;3.35;;;;;;;15.96;66.92;100536.34;20820117;28;20231;-81
2023/08/05 00:35:04;;;;;;;5.75;4.00;;;;;;;16.21;65.67;100547.59;20794947;28;20354;-82
2023/08/05 00:45:08;;;;;;;7.03;4.20;;;;;;;16.70;64.03;100534.78;20796040;28;20227;-82
2023/08/05 00:55:10;;;;;;;6.03;4.07;;;;;;;16.95;63.77;100529.75;20789190;28;20220;-80
2023/08/05 01:05:13;;;;;;;4.68;4.03;;;;;;;16.23;65.96;100520.50;20814748;28;20703;-80
2023/08/05 01:15:16;;;;;;;4.65;4.15;;;;;;;16.39;66.08;100524.19;20798449;28;20617;-81
2023/08/05 01:25:22;;;;;;;5.68;4.78;;;;;;;16.75;65.17;100510.97;20800715;28;20246;-80
2023/08/05 01:35:25;;;;;;;6.38;4.15;;;;;;;16.65;64.64;100515.16;20804001;28;20282;-82
2023/08/05 01:45:27;;;;;;;6.43;4.70;;;;;;;16.01;67.13;100523.91;20796226;28;20510;-81
2023/08/05 01:55:30;;;;;;;7.43;4.25;;;;;;;15.88;67.49;100519.47;20793458;28;20224;-81
2023/08/05 02:05:33;;;;;;;6.28;4.47;;;;;;;16.69;65.19;100526.63;20793273;28;20232;-82
2023/08/05 02:15:35;;;;;;;5.03;3.90;;;;;;;16.10;67.29;100516.06;20786332;28;20687;-81
2023/08/05 02:25:38;;;;;;;6.07;4.18;;;;;;;15.91;67.61;100510.22;20823883;28;20673;-80
2023/08/05 02:35:40;;;;;;;5.55;3.60;;;;;;;15.95;67.64;100502.66;20791975;28;20228;-79
2023/08/05 02:45:43;;;;;;;6.03;3.57;;;;;;;16.16;65.45;100480.53;20779407;28;20536;-80
2023/08/05 02:55:46;;;;;;;7.27;3.20;;;;;;;16.12;66.35;100496.63;20796640;28;20562;-81
2023/08/05 03:05:49;;;;;;;5.55;3.97;;;;;;;16.09;67.12;100491.72;20783798;28;20216;-80
2023/08/05 03:15:53;;;;;;;10.23;4.00;;;;;;;16.29;66.58;100478.44;20768413;28;20208;-81
2023/08/05 03:25:56;;;;;;;5.03;3.58;;;;;;;15.91;67.79;100485.50;20803471;28;20254;-81
2023/08/05 03:35:59;;;;;;;6.65;4.25;;;;;;;15.61;69.27;100476.50;20825637;28;20339;-81
2023/08/05 03:46:03;;;;;;;6.38;3.70;;;;;;;15.53;69.13;100471.81;20807025;28;20204;-81
2023/08/05 03:56:06;;;;;;;7.05;4.43;;;;;;;15.76;67.42;100455.91;20825564;28;20286;-80
2023/08/05 04:06:15;;;;;;;6.20;3.78;;;;;;;14.61;70.31;100463.97;20807466;28;20713;-81
2023/08/05 04:16:19;;;;;;;6.67;4.43;;;;;;;15.68;66.56;100439.84;20809103;28;20216;-81
2023/08/05 04:26:24;;;;;;;8.88;4.60;;;;;;;15.49;66.61;100439.66;20800924;28;20226;-81
2023/08/05 04:36:27;;;;;;;7.38;4.38;;;;;;;15.22;66.79;100446.13;20795012;28;20664;-81
2023/08/05 04:46:29;;;;;;;6.28;4.90;;;;;;;15.42;66.32;100445.13;20811533;28;20192;-80
2023/08/05 04:56:33;;;;;;;8.70;4.90;;;;;;;15.39;67.00;100420.31;20795786;28;20221;-80
2023/08/05 05:06:36;;;;;;;7.60;5.53;;;;;;;15.33;66.76;100408.41;20784510;28;20224;-81
2023/08/05 05:16:39;;;;;;;9.85;6.55;;;;;;;15.06;67.05;100423.38;20764801;28;20251;-81
2023/08/05 05:26:41;;;;;;;6.77;6.07;;;;;;;14.57;68.46;100425.38;20790330;28;20230;-80
2023/08/05 05:36:44;;;;;;;9.47;7.70;;;;;;;14.89;67.95;100421.59;20789609;28;20224;-82
2023/08/05 05:46:48;;;;;;;9.90;8.80;;;;;;;14.49;69.53;100423.50;20765053;28;20408;-81
2023/08/05 05:56:52;;;;;;;11.98;8.82;;;;;;;15.06;68.29;100424.22;20773371;28;21208;-80
2023/08/05 06:06:55;;;;;;;12.00;9.07;;;;;;;15.00;68.55;100424.78;20745904;28;20286;-81
2023/08/05 06:16:58;;;;;;;14.85;8.70;;;;;;;16.16;64.60;100407.53;20770442;28;20224;-80
2023/08/05 06:27:01;;;;;;;11.07;7.93;;;;;;;15.73;67.13;100418.88;20745613;28;20604;-82
2023/08/05 06:48:28;;;;;;;10.80;7.93;;;;;;;17.15;62.67;100405.50;20779405;28;20526;-80
2023/08/05 06:58:31;;;;;;;11.80;7.38;;;;;;;16.99;63.22;100399.91;20760843;28;20223;-80
2023/08/05 07:08:34;;;;;;;10.15;6.90;;;;;;;16.60;64.75;100395.31;20752021;28;20256;-81
2023/08/05 07:18:37;;;;;;;8.82;6.13;;;;;;;16.20;64.38;100384.94;20760045;28;20196;-80
2023/08/05 07:28:43;;;;;;;7.15;5.07;;;;;;;16.76;63.55;100379.03;20759081;28;20270;-83
2023/08/05 07:38:59;;;;;;;6.70;3.10;;;;;;;17.18;60.56;100368.63;20739425;28;20784;-80
2023/08/05 07:49:07;;;;;;;3.95;3.33;;;;;;;17.91;59.73;100347.78;20765943;28;20253;-82
2023/08/05 07:59:12;;;;;;;5.82;2.72;;;;;;;17.66;57.53;100335.13;20752899;28;20200;-83
2023/08/05 08:09:17;;;;;;;4.65;3.13;;;;;;;18.11;58.28;100322.13;20745203;28;20290;-83
2023/08/05 08:19:21;;;;;;;7.70;3.83;;;;;;;17.85;57.78;100305.75;20795389;28;20257;-81
2023/08/05 08:29:23;;;;;;;8.15;4.28;;;;;;;18.26;56.71;100301.22;20788756;28;20228;-81
2023/08/05 08:39:26;;;;;;;4.13;2.95;;;;;;;18.33;52.18;100297.63;20777090;28;20193;-81
2023/08/05 08:49:32;;;;;;;4.65;3.08;;;;;;;19.63;50.18;100274.97;20767649;28;20548;-81
2023/08/05 08:59:34;;;;;;;6.18;3.58;;;;;;;18.60;51.43;100274.47;20808601;28;20234;-81
2023/08/05 09:09:37;;;;;;;6.50;3.88;;;;;;;18.73;50.17;100257.97;20762025;28;20244;-81
2023/08/05 09:19:44;;;;;;;4.20;3.03;;;;;;;18.96;48.67;100249.34;20776604;28;20483;-82
2023/08/05 09:29:46;;;;;;;6.03;3.30;;;;;;;18.54;48.62;100241.81;20772352;28;20262;-81
2023/08/05 09:39:51;;;;;;;5.32;4.70;;;;;;;19.08;48.42;100220.56;20764240;28;20224;-83
2023/08/05 09:49:56;;;;;;;6.00;5.40;;;;;;;19.61;48.30;100217.47;20762985;28;20301;-80
2023/08/05 10:00:00;;;;;;;6.50;5.80;;;;;;;19.87;47.63;100205.88;20765146;28;20204;-79
2023/08/05 10:10:06;;;;;;;5.30;4.80;;;;;;;20.03;45.94;100183.56;20795541;28;20224;-79
2023/08/05 10:20:11;;;;;;;5.95;5.18;;;;;;;19.89;46.01;100172.00;20772368;28;20216;-78
2023/08/05 10:30:16;;;;;;;6.00;5.22;;;;;;;20.14;43.01;100157.91;20758537;28;20282;-78
2023/08/05 10:40:38;;;;;;;6.40;5.75;;;;;;;19.98;43.85;100155.38;20759581;28;20215;-79
2023/08/05 10:50:42;;;;;;;7.68;6.40;;;;;;;21.16;44.44;100133.88;20766750;28;20556;-79
2023/08/05 11:00:45;;;;;;;6.88;6.07;;;;;;;19.08;44.31;100134.16;20728501;28;20804;-80
2023/08/05 11:10:49;;;;;;;6.45;5.28;;;;;;;20.21;42.29;100123.69;20671994;28;20704;-80
2023/08/05 11:20:51;;;;;;;6.55;5.05;;;;;;;20.85;43.18;100109.66;20651754;28;20263;-80
2023/08/05 11:30:54;;;;;;;5.55;5.05;;;;;;;20.79;43.31;100090.44;20648221;28;20246;-81
2023/08/05 11:40:57;;;;;;;5.55;5.05;;;;;;;20.03;43.94;100083.59;20672049;28;20201;-82
2023/08/05 11:51:04;;;;;;;4.75;4.35;;;;;;;20.07;43.76;100065.66;20691480;28;20249;-79
2023/08/05 12:01:07;;;;;;;5.40;4.88;;;;;;;20.21;44.56;100054.28;20683704;28;20235;-79
2023/08/05 12:11:14;;;;;;;4.68;4.28;;;;;;;20.27;42.31;100030.63;20711513;28;20253;-80
2023/08/05 12:21:17;;;;;;;4.38;3.97;;;;;;;20.04;44.15;100025.25;20706195;28;20197;-83
2023/08/05 12:31:20;;;;;;;4.38;4.00;;;;;;;20.73;41.58;99995.66;20727950;28;20279;-82
2023/08/05 12:41:23;;;;;;;5.22;4.25;;;;;;;20.43;42.55;99992.31;20693502;28;20197;-81
2023/08/05 12:51:26;;;;;;;4.25;3.38;;;;;;;20.21;40.94;99986.53;20703742;28;20311;-82
2023/08/05 13:01:29;;;;;;;4.30;3.90;;;;;;;20.24;43.02;99957.16;20719418;28;20248;-81
2023/08/05 13:11:31;;;;;;;4.20;3.80;;;;;;;20.31;49.05;99939.19;20684632;28;20307;-83
2023/08/05 13:21:36;;;;;;;4.43;3.50;;;;;;;19.97;44.37;99922.41;20701378;28;20212;-82
2023/08/05 13:31:39;;;;;;;3.35;3.03;;;;;;;21.34;43.15;99894.28;20698469;28;20244;-82
2023/08/05 13:41:42;;;;;;;5.05;3.47;;;;;;;22.06;41.38;99871.91;20694022;28;20268;-84
2023/08/05 13:51:47;;;;;;;3.20;2.58;;;;;;;21.06;41.16;99863.66;20715425;28;20739;-82
2023/08/05 14:01:50;;;;;;;2.50;2.30;;;;;;;20.48;41.24;99857.56;20719862;28;20252;-82
2023/08/05 14:11:53;;;;;;;4.13;2.83;;;;;;;19.99;43.11;99868.56;20689034;28;20783;-81
2023/08/05 14:21:56;;;;;;;3.35;3.05;;;;;;;20.35;45.65;99875.13;20693098;28;20296;-82
2023/08/05 14:31:59;;;;;;;2.03;1.67;;;;;;;17.18;59.72;99916.50;20698817;28;20511;-87
2023/08/05 14:42:03;;;;;;;5.25;2.00;;;;;;;16.79;66.72;99917.91;20697381;28;20292;-83
2023/08/05 14:52:06;;;;;;;3.88;1.90;;;;;;;16.62;66.29;99910.75;20690278;28;20637;-82
2023/08/05 15:02:08;;;;;;;5.43;2.58;;;;;;;16.52;68.98;99943.44;20699989;28;20221;-83
2023/08/05 15:12:12;;;;;;;2.40;2.20;;;;;;;16.86;66.23;99943.63;20702293;28;20633;-81
2023/08/05 15:22:16;;;;;;;2.85;2.40;;;;;;;17.08;65.37;99891.59;20756748;28;20240;-83
2023/08/05 15:32:19;;;;;;;2.78;2.58;;;;;;;16.49;69.87;99889.41;20738470;28;20252;-83
2023/08/05 15:42:22;;;;;;;4.38;2.70;;;;;;;16.71;68.25;99882.91;20734142;28;20209;-82
2023/08/05 15:52:25;;;;;;;4.53;2.55;;;;;;;16.84;67.67;99877.81;20740999;28;20625;-83
2023/08/05 16:02:27;;;;;;;4.28;2.65;;;;;;;16.70;71.22;99888.97;20728787;28;20276;-83
2023/08/05 16:12:30;;;;;;;3.00;2.67;;;;;;;17.28;67.68;99857.38;20823217;28;20224;-82
2023/08/05 16:22:33;;;;;;;2.22;2.13;;;;;;;16.38;70.90;99857.97;20781758;28;20201;-82
2023/08/05 16:32:37;;;;;;;3.73;2.60;;;;;;;16.99;68.07;99837.03;20800965;28;20624;-81
2023/08/05 16:42:40;;;;;;;2.78;2.53;;;;;;;17.26;66.91;99834.19;20794905;28;20265;-82
2023/08/05 16:52:43;;;;;;;3.40;3.10;;;;;;;17.21;68.95;99827.59;20767042;28;20228;-83
2023/08/05 17:02:46;;;;;;;3.45;3.15;;;;;;;17.50;68.38;99816.59;20771110;28;20256;-84
2023/08/05 17:12:50;;;;;;;3.40;3.03;;;;;;;17.58;68.12;99824.00;20763632;28;20251;-84
2023/08/05 17:22:52;;;;;;;4.28;2.70;;;;;;;16.77;68.08;99821.69;20760518;28;20246;-82
2023/08/05 17:32:58;;;;;;;3.63;3.00;;;;;;;17.43;67.09;99786.03;20775501;28;20297;-84
2023/08/05 17:43:01;;;;;;;3.15;2.90;;;;;;;17.03;68.60;99791.59;20751609;28;20208;-83
2023/08/05 17:53:04;;;;;;;4.25;3.25;;;;;;;17.57;67.68;99791.06;20782872;28;20244;-85
2023/08/05 18:03:16;;;;;;;6.63;3.70;;;;;;;17.60;68.17;99783.78;20752809;28;20224;-84
2023/08/05 18:13:20;;;;;;;5.28;3.85;;;;;;;17.24;68.96;99780.53;20763310;28;20224;-84
2023/08/05 18:23:22;;;;;;;5.38;3.05;;;;;;;17.05;68.89;99758.72;20768063;28;20259;-81
2023/08/05 18:33:25;;;;;;;4.93;3.42;;;;;;;17.28;69.29;99740.78;20773236;28;20240;-81
2023/08/05 18:43:28;;;;;;;4.20;3.22;;;;;;;17.63;66.82;99734.63;20780844;28;20247;-82
2023/08/05 18:53:31;;;;;;;4.23;3.50;;;;;;;17.67;65.56;99730.59;20779583;28;20220;-80
2023/08/05 19:03:36;;;;;;;4.03;3.60;;;;;;;17.53;67.17;99714.22;20770235;28;20223;-79
2023/08/05 19:13:39;;;;;;;4.20;3.63;;;;;;;17.21;68.40;99725.22;20758224;28;20659;-81
2023/08/05 19:23:43;;;;;;;3.88;3.58;;;;;;;17.06;68.91;99706.34;20765620;28;20227;-80
2023/08/05 19:33:48;;;;;;;4.47;3.70;;;;;;;17.57;66.81;99682.94;20772672;28;20221;-81
2023/08/05 19:43:53;;;;;;;5.38;3.90;;;;;;;17.28;67.20;99679.00;20791306;28;20196;-80
2023/08/05 19:53:56;;;;;;;4.65;4.03;;;;;;;17.29;66.03;99676.97;20754278;28;20694;-80
2023/08/05 20:03:58;;;;;;;4.03;3.28;;;;;;;16.91;68.25;99658.25;20776164;28;20224;-80
2023/08/05 20:14:02;;;;;;;3.00;2.80;;;;;;;16.82;67.53;99655.72;20773561;28;20228;-81
2023/08/05 20:24:05;;;;;;;3.72;3.40;;;;;;;16.48;69.68;99647.19;20774870;28;20262;-81
2023/08/05 20:34:08;;;;;;;5.07;3.88;;;;;;;16.98;67.92;99627.91;20782576;28;20225;-81
2023/08/05 20:44:11;;;;;;;5.00;4.50;;;;;;;16.64;68.98;99624.25;20746565;28;20224;-81
2023/08/05 20:54:14;;;;;;;5.18;2.95;;;;;;;16.48;69.55;99607.41;20754297;28;20256;-80
2023/08/05 21:04:17;;;;;;;3.63;3.33;;;;;;;16.61;69.14;99588.13;20749489;28;20228;-81
2023/08/05 21:14:19;;;;;;;3.65;3.00;;;;;;;15.53;72.17;99595.47;20769135;28;20239;-81
2023/08/05 21:24:22;;;;;;;3.40;3.10;;;;;;;16.72;68.09;99585.41;20755816;28;20205;-81
2023/08/05 21:34:25;;;;;;;7.00;3.57;;;;;;;17.04;66.88;99568.66;20777875;28;20746;-81
2023/08/05 21:44:27;;;;;;;5.20;3.40;;;;;;;16.98;68.23;99551.16;20759788;28;20200;-81
2023/08/05 21:54:30;;;;;;;4.82;3.47;;;;;;;17.18;67.51;99535.50;20743626;28;20619;-80
2023/08/05 22:04:34;;;;;;;4.03;3.60;;;;;;;17.19;66.93;99545.66;20768845;28;20353;-80
2023/08/05 22:14:37;;;;;;;3.63;3.33;;;;;;;17.01;67.13;99526.84;20752401;28;20251;-81
2023/08/05 22:24:41;;;;;;;3.33;3.05;;;;;;;16.55;68.91;99515.00;20728556;28;20232;-81
2023/08/05 22:34:45;;;;;;;6.43;4.13;;;;;;;16.88;67.41;99492.22;20727895;28;20260;-81
2023/08/05 22:44:51;;;;;;;5.68;4.28;;;;;;;16.51;69.12;99489.38;20732312;28;20295;-81
2023/08/05 22:54:53;;;;;;;3.85;3.55;;;;;;;16.83;67.55;99469.81;20722176;28;20306;-81
2023/08/05 23:04:56;;;;;;;4.40;4.05;;;;;;;16.97;66.57;99472.78;20752035;28;20256;-81
2023/08/05 23:14:59;;;;;;;6.70;4.63;;;;;;;16.95;67.30;99460.19;20748793;28;20690;-81
2023/08/05 23:25:03;;;;;;;8.73;3.42;;;;;;;16.70;68.15;99459.97;20739532;28;20231;-80
2023/08/05 23:35:06;;;;;;;5.20;3.83;;;;;;;16.45;69.55;99454.84;20776044;28;20877;-80
2023/08/05 23:45:13;;;;;;;4.80;3.55;;;;;;;16.97;66.75;99441.53;20775064;28;20230;-80
2023/08/05 23:55:16;;;;;;;5.05;3.08;;;;;;;16.47;68.29;99437.41;20789727;28;20224;-80
